sensor_id;sensor_type;location;lat;lon;timestamp;P1;durP1;ratioP1;P2;durP2;ratioP2
7703;SDS011;3894;49.700;10.770;2023-11-21T00:00:15;3.33;;;0.65;;
7703;SDS011;3894;49.700;10.770;2023-11-21T00:02:44;4.85;;;1.45;;
7703;SDS011;3894;49.700;10.770;2023-11-21T00:05:11;6.07;;;0.80;;
7703;SDS011;3894;49.700;10.770;2023-11-21T00:07:39;6.57;;;1.27;;
7703;SDS011;3894;49.700;10.770;2023-11-21T00:10:05;4.00;;;0.88;;
7703;SDS011;3894;49.700;10.770;2023-11-21T00:12:31;4.35;;;0.85;;
7703;SDS011;3894;49.700;10.770;2023-11-21T00:14:58;4.47;;;0.50;;
7703;SDS011;3894;49.700;10.770;2023-11-21T00:17:24;5.00;;;0.65;;
7703;SDS011;3894;49.700;10.770;2023-11-21T00:19:49;4.25;;;0.80;;
7703;SDS011;3894;49.700;10.770;2023-11-21T00:22:17;2.78;;;0.50;;
7703;SDS011;3894;49.700;10.770;2023-11-21T00:24:43;4.20;;;0.40;;
7703;SDS011;3894;49.700;10.770;2023-11-21T00:27:08;3.50;;;0.60;;
7703;SDS011;3894;49.700;10.770;2023-11-21T00:29:36;3.13;;;0.77;;
7703;SDS011;3894;49.700;10.770;2023-11-21T00:32:01;2.88;;;0.35;;
7703;SDS011;3894;49.700;10.770;2023-11-21T00:34:27;4.68;;;0.63;;
7703;SDS011;3894;49.700;10.770;2023-11-21T00:36:53;3.30;;;1.00;;
7703;SDS011;3894;49.700;10.770;2023-11-21T00:39:19;7.20;;;0.50;;
7703;SDS011;3894;49.700;10.770;2023-11-21T00:41:44;5.30;;;0.55;;
7703;SDS011;3894;49.700;10.770;2023-11-21T00:44:10;2.72;;;0.28;;
7703;SDS011;3894;49.700;10.770;2023-11-21T00:46:36;4.20;;;0.60;;
7703;SDS011;3894;49.700;10.770;2023-11-21T00:49:02;4.68;;;0.57;;
7703;SDS011;3894;49.700;10.770;2023-11-21T00:51:29;5.60;;;0.52;;
7703;SDS011;3894;49.700;10.770;2023-11-21T00:53:55;2.42;;;0.40;;
7703;SDS011;3894;49.700;10.770;2023-11-21T00:56:21;4.05;;;0.35;;
7703;SDS011;3894;49.700;10.770;2023-11-21T00:58:47;4.72;;;1.27;;
7703;SDS011;3894;49.700;10.770;2023-11-21T01:03:41;2.75;;;0.35;;
7703;SDS011;3894;49.700;10.770;2023-11-21T01:06:07;3.78;;;0.30;;
7703;SDS011;3894;49.700;10.770;2023-11-21T01:08:33;3.20;;;0.60;;
7703;SDS011;3894;49.700;10.770;2023-11-21T01:10:59;5.95;;;0.55;;
7703;SDS011;3894;49.700;10.770;2023-11-21T01:13:25;5.32;;;0.60;;
7703;SDS011;3894;49.700;10.770;2023-11-21T01:15:55;2.92;;;0.45;;
7703;SDS011;3894;49.700;10.770;2023-11-21T01:18:21;2.90;;;0.30;;
7703;SDS011;3894;49.700;10.770;2023-11-21T01:20:50;2.55;;;0.43;;
7703;SDS011;3894;49.700;10.770;2023-11-21T01:23:18;2.35;;;0.43;;
7703;SDS011;3894;49.700;10.770;2023-11-21T01:25:43;2.53;;;0.32;;
7703;SDS011;3894;49.700;10.770;2023-11-21T01:28:09;2.83;;;0.22;;
7703;SDS011;3894;49.700;10.770;2023-11-21T01:30:34;4.07;;;0.30;;
7703;SDS011;3894;49.700;10.770;2023-11-21T01:33:00;5.00;;;0.47;;
7703;SDS011;3894;49.700;10.770;2023-11-21T01:35:26;2.83;;;0.30;;
7703;SDS011;3894;49.700;10.770;2023-11-21T01:37:51;3.22;;;0.32;;
7703;SDS011;3894;49.700;10.770;2023-11-21T01:40:17;3.38;;;0.50;;
7703;SDS011;3894;49.700;10.770;2023-11-21T01:42:43;2.42;;;0.30;;
7703;SDS011;3894;49.700;10.770;2023-11-21T01:45:09;4.20;;;0.35;;
7703;SDS011;3894;49.700;10.770;2023-11-21T01:47:37;4.20;;;0.50;;
7703;SDS011;3894;49.700;10.770;2023-11-21T01:50:03;3.53;;;0.40;;
7703;SDS011;3894;49.700;10.770;2023-11-21T01:52:31;2.92;;;0.20;;
7703;SDS011;3894;49.700;10.770;2023-11-21T01:54:58;3.55;;;0.50;;
7703;SDS011;3894;49.700;10.770;2023-11-21T01:57:25;3.88;;;0.30;;
7703;SDS011;3894;49.700;10.770;2023-11-21T01:59:50;4.75;;;0.38;;
7703;SDS011;3894;49.700;10.770;2023-11-21T02:02:19;4.38;;;0.50;;
7703;SDS011;3894;49.700;10.770;2023-11-21T02:04:44;4.55;;;0.40;;
7703;SDS011;3894;49.700;10.770;2023-11-21T02:07:10;3.13;;;0.38;;
7703;SDS011;3894;49.700;10.770;2023-11-21T02:09:36;4.30;;;0.45;;
7703;SDS011;3894;49.700;10.770;2023-11-21T02:12:07;1.90;;;0.20;;
7703;SDS011;3894;49.700;10.770;2023-11-21T02:14:35;3.90;;;0.40;;
7703;SDS011;3894;49.700;10.770;2023-11-21T02:17:01;4.20;;;0.43;;
7703;SDS011;3894;49.700;10.770;2023-11-21T02:19:28;5.28;;;0.50;;
7703;SDS011;3894;49.700;10.770;2023-11-21T02:21:56;2.78;;;0.20;;
7703;SDS011;3894;49.700;10.770;2023-11-21T02:24:28;2.25;;;0.30;;
7703;SDS011;3894;49.700;10.770;2023-11-21T02:26:54;2.33;;;0.30;;
7703;SDS011;3894;49.700;10.770;2023-11-21T02:29:20;2.72;;;0.30;;
7703;SDS011;3894;49.700;10.770;2023-11-21T02:31:55;4.85;;;0.30;;
7703;SDS011;3894;49.700;10.770;2023-11-21T02:34:21;3.40;;;0.30;;
7703;SDS011;3894;49.700;10.770;2023-11-21T02:36:49;3.70;;;0.35;;
7703;SDS011;3894;49.700;10.770;2023-11-21T02:39:16;4.10;;;0.30;;
7703;SDS011;3894;49.700;10.770;2023-11-21T02:41:43;3.60;;;0.90;;
7703;SDS011;3894;49.700;10.770;2023-11-21T02:44:09;3.03;;;0.45;;
7703;SDS011;3894;49.700;10.770;2023-11-21T02:46:35;4.03;;;0.60;;
7703;SDS011;3894;49.700;10.770;2023-11-21T02:49:05;3.63;;;0.43;;
7703;SDS011;3894;49.700;10.770;2023-11-21T02:51:35;9.10;;;0.68;;
7703;SDS011;3894;49.700;10.770;2023-11-21T02:54:03;3.13;;;0.30;;
7703;SDS011;3894;49.700;10.770;2023-11-21T02:56:31;5.25;;;0.38;;
7703;SDS011;3894;49.700;10.770;2023-11-21T02:58:59;4.32;;;0.47;;
7703;SDS011;3894;49.700;10.770;2023-11-21T03:01:25;2.20;;;0.30;;
7703;SDS011;3894;49.700;10.770;2023-11-21T03:03:51;2.90;;;0.30;;
7703;SDS011;3894;49.700;10.770;2023-11-21T03:06:20;3.03;;;0.28;;
7703;SDS011;3894;49.700;10.770;2023-11-21T03:08:45;2.72;;;0.28;;
7703;SDS011;3894;49.700;10.770;2023-11-21T03:11:11;3.28;;;0.60;;
7703;SDS011;3894;49.700;10.770;2023-11-21T03:13:38;2.25;;;0.30;;
7703;SDS011;3894;49.700;10.770;2023-11-21T03:16:06;1.88;;;0.20;;
7703;SDS011;3894;49.700;10.770;2023-11-21T03:18:35;2.53;;;0.30;;
7703;SDS011;3894;49.700;10.770;2023-11-21T03:21:07;3.55;;;0.30;;
7703;SDS011;3894;49.700;10.770;2023-11-21T03:23:36;4.55;;;1.00;;
7703;SDS011;3894;49.700;10.770;2023-11-21T03:26:02;3.35;;;0.32;;
7703;SDS011;3894;49.700;10.770;2023-11-21T03:28:28;2.90;;;0.50;;
7703;SDS011;3894;49.700;10.770;2023-11-21T03:30:55;4.13;;;0.40;;
7703;SDS011;3894;49.700;10.770;2023-11-21T03:33:22;3.70;;;0.80;;
7703;SDS011;3894;49.700;10.770;2023-11-21T03:35:48;3.40;;;0.30;;
7703;SDS011;3894;49.700;10.770;2023-11-21T03:38:14;3.22;;;0.30;;
7703;SDS011;3894;49.700;10.770;2023-11-21T03:40:40;4.35;;;0.43;;
7703;SDS011;3894;49.700;10.770;2023-11-21T03:43:06;2.72;;;0.40;;
7703;SDS011;3894;49.700;10.770;2023-11-21T03:45:32;3.65;;;0.40;;
7703;SDS011;3894;49.700;10.770;2023-11-21T03:47:57;3.22;;;0.60;;
7703;SDS011;3894;49.700;10.770;2023-11-21T03:50:23;3.50;;;0.65;;
7703;SDS011;3894;49.700;10.770;2023-11-21T03:52:48;3.92;;;0.40;;
7703;SDS011;3894;49.700;10.770;2023-11-21T03:55:14;4.43;;;0.63;;
7703;SDS011;3894;49.700;10.770;2023-11-21T03:57:40;3.65;;;0.63;;
7703;SDS011;3894;49.700;10.770;2023-11-21T04:00:06;5.28;;;0.70;;
7703;SDS011;3894;49.700;10.770;2023-11-21T04:02:34;2.97;;;0.55;;
7703;SDS011;3894;49.700;10.770;2023-11-21T04:04:59;3.88;;;0.50;;
7703;SDS011;3894;49.700;10.770;2023-11-21T04:07:25;5.45;;;1.08;;
7703;SDS011;3894;49.700;10.770;2023-11-21T04:09:51;5.20;;;0.40;;
7703;SDS011;3894;49.700;10.770;2023-11-21T04:12:16;4.18;;;0.75;;
7703;SDS011;3894;49.700;10.770;2023-11-21T04:14:42;4.30;;;0.60;;
7703;SDS011;3894;49.700;10.770;2023-11-21T04:17:07;4.32;;;0.60;;
7703;SDS011;3894;49.700;10.770;2023-11-21T04:19:34;3.35;;;0.55;;
7703;SDS011;3894;49.700;10.770;2023-11-21T04:22:00;3.78;;;0.50;;
7703;SDS011;3894;49.700;10.770;2023-11-21T04:24:25;3.70;;;0.50;;
7703;SDS011;3894;49.700;10.770;2023-11-21T04:26:51;4.28;;;0.55;;
7703;SDS011;3894;49.700;10.770;2023-11-21T04:29:16;4.78;;;1.15;;
7703;SDS011;3894;49.700;10.770;2023-11-21T04:31:42;6.30;;;1.35;;
7703;SDS011;3894;49.700;10.770;2023-11-21T04:34:08;8.85;;;2.20;;
7703;SDS011;3894;49.700;10.770;2023-11-21T04:36:33;5.95;;;1.38;;
7703;SDS011;3894;49.700;10.770;2023-11-21T04:39:02;8.25;;;2.42;;
7703;SDS011;3894;49.700;10.770;2023-11-21T04:41:28;5.00;;;1.20;;
7703;SDS011;3894;49.700;10.770;2023-11-21T04:43:54;5.70;;;1.10;;
7703;SDS011;3894;49.700;10.770;2023-11-21T04:46:20;8.13;;;2.28;;
7703;SDS011;3894;49.700;10.770;2023-11-21T04:48:46;5.13;;;1.33;;
7703;SDS011;3894;49.700;10.770;2023-11-21T04:51:12;6.10;;;1.23;;
7703;SDS011;3894;49.700;10.770;2023-11-21T04:53:37;4.72;;;0.82;;
7703;SDS011;3894;49.700;10.770;2023-11-21T04:56:04;3.78;;;0.70;;
7703;SDS011;3894;49.700;10.770;2023-11-21T04:58:30;6.28;;;0.98;;
7703;SDS011;3894;49.700;10.770;2023-11-21T05:00:56;4.85;;;1.20;;
7703;SDS011;3894;49.700;10.770;2023-11-21T05:03:23;4.88;;;1.27;;
7703;SDS011;3894;49.700;10.770;2023-11-21T05:05:49;4.30;;;1.13;;
7703;SDS011;3894;49.700;10.770;2023-11-21T05:08:14;5.88;;;0.98;;
7703;SDS011;3894;49.700;10.770;2023-11-21T05:10:42;4.07;;;1.20;;
7703;SDS011;3894;49.700;10.770;2023-11-21T05:13:07;6.32;;;1.10;;
7703;SDS011;3894;49.700;10.770;2023-11-21T05:15:35;4.95;;;1.17;;
7703;SDS011;3894;49.700;10.770;2023-11-21T05:18:02;5.53;;;0.93;;
7703;SDS011;3894;49.700;10.770;2023-11-21T05:20:28;3.95;;;0.52;;
7703;SDS011;3894;49.700;10.770;2023-11-21T05:22:54;3.95;;;0.80;;
7703;SDS011;3894;49.700;10.770;2023-11-21T05:25:19;5.65;;;0.73;;
7703;SDS011;3894;49.700;10.770;2023-11-21T05:27:46;6.13;;;0.90;;
7703;SDS011;3894;49.700;10.770;2023-11-21T05:30:12;3.53;;;0.70;;
7703;SDS011;3894;49.700;10.770;2023-11-21T05:32:39;6.80;;;0.80;;
7703;SDS011;3894;49.700;10.770;2023-11-21T05:35:07;4.00;;;0.60;;
7703;SDS011;3894;49.700;10.770;2023-11-21T05:37:37;4.63;;;0.50;;
7703;SDS011;3894;49.700;10.770;2023-11-21T05:40:06;6.57;;;1.00;;
7703;SDS011;3894;49.700;10.770;2023-11-21T05:42:36;4.18;;;0.63;;
7703;SDS011;3894;49.700;10.770;2023-11-21T05:45:03;4.57;;;0.63;;
7703;SDS011;3894;49.700;10.770;2023-11-21T05:47:45;5.28;;;1.00;;
7703;SDS011;3894;49.700;10.770;2023-11-21T05:50:12;4.90;;;0.90;;
7703;SDS011;3894;49.700;10.770;2023-11-21T05:52:45;4.18;;;0.63;;
7703;SDS011;3894;49.700;10.770;2023-11-21T05:55:12;7.72;;;1.05;;
7703;SDS011;3894;49.700;10.770;2023-11-21T05:57:38;5.10;;;0.80;;
7703;SDS011;3894;49.700;10.770;2023-11-21T06:00:08;4.45;;;0.70;;
7703;SDS011;3894;49.700;10.770;2023-11-21T06:02:39;5.22;;;1.60;;
7703;SDS011;3894;49.700;10.770;2023-11-21T06:05:08;3.80;;;0.90;;
7703;SDS011;3894;49.700;10.770;2023-11-21T06:07:34;3.47;;;0.73;;
7703;SDS011;3894;49.700;10.770;2023-11-21T06:10:03;3.47;;;0.60;;
7703;SDS011;3894;49.700;10.770;2023-11-21T06:12:36;4.00;;;0.82;;
7703;SDS011;3894;49.700;10.770;2023-11-21T06:15:04;3.67;;;0.88;;
7703;SDS011;3894;49.700;10.770;2023-11-21T06:17:33;3.22;;;0.60;;
7703;SDS011;3894;49.700;10.770;2023-11-21T06:22:39;7.22;;;1.10;;
7703;SDS011;3894;49.700;10.770;2023-11-21T06:25:06;7.10;;;0.80;;
7703;SDS011;3894;49.700;10.770;2023-11-21T06:27:33;3.75;;;0.80;;
7703;SDS011;3894;49.700;10.770;2023-11-21T06:30:01;5.32;;;1.20;;
7703;SDS011;3894;49.700;10.770;2023-11-21T06:32:27;5.07;;;1.00;;
7703;SDS011;3894;49.700;10.770;2023-11-21T06:34:54;4.32;;;1.02;;
7703;SDS011;3894;49.700;10.770;2023-11-21T06:37:20;4.53;;;1.13;;
7703;SDS011;3894;49.700;10.770;2023-11-21T06:39:48;7.05;;;1.50;;
7703;SDS011;3894;49.700;10.770;2023-11-21T06:42:14;4.85;;;1.30;;
7703;SDS011;3894;49.700;10.770;2023-11-21T06:44:40;5.80;;;1.20;;
7703;SDS011;3894;49.700;10.770;2023-11-21T06:47:06;4.80;;;1.08;;
7703;SDS011;3894;49.700;10.770;2023-11-21T06:49:32;4.78;;;1.38;;
7703;SDS011;3894;49.700;10.770;2023-11-21T06:51:58;5.03;;;1.17;;
7703;SDS011;3894;49.700;10.770;2023-11-21T06:54:23;4.93;;;1.20;;
7703;SDS011;3894;49.700;10.770;2023-11-21T06:56:49;5.53;;;1.38;;
7703;SDS011;3894;49.700;10.770;2023-11-21T06:59:15;4.78;;;0.90;;
7703;SDS011;3894;49.700;10.770;2023-11-21T07:01:41;6.18;;;1.40;;
7703;SDS011;3894;49.700;10.770;2023-11-21T07:04:06;5.63;;;1.52;;
7703;SDS011;3894;49.700;10.770;2023-11-21T07:06:32;5.18;;;1.50;;
7703;SDS011;3894;49.700;10.770;2023-11-21T07:08:58;6.38;;;1.65;;
7703;SDS011;3894;49.700;10.770;2023-11-21T07:11:24;7.63;;;1.30;;
7703;SDS011;3894;49.700;10.770;2023-11-21T07:13:51;5.00;;;1.05;;
7703;SDS011;3894;49.700;10.770;2023-11-21T07:16:18;5.97;;;1.65;;
7703;SDS011;3894;49.700;10.770;2023-11-21T07:18:44;7.32;;;2.08;;
7703;SDS011;3894;49.700;10.770;2023-11-21T07:21:10;5.55;;;1.90;;
7703;SDS011;3894;49.700;10.770;2023-11-21T07:23:37;4.95;;;1.60;;
7703;SDS011;3894;49.700;10.770;2023-11-21T07:26:04;7.10;;;1.75;;
7703;SDS011;3894;49.700;10.770;2023-11-21T07:28:34;6.20;;;1.50;;
7703;SDS011;3894;49.700;10.770;2023-11-21T07:31:00;5.15;;;1.30;;
7703;SDS011;3894;49.700;10.770;2023-11-21T07:33:26;6.07;;;1.98;;
7703;SDS011;3894;49.700;10.770;2023-11-21T07:35:52;6.57;;;1.88;;
7703;SDS011;3894;49.700;10.770;2023-11-21T07:38:17;5.85;;;1.55;;
7703;SDS011;3894;49.700;10.770;2023-11-21T07:40:43;5.82;;;1.50;;
7703;SDS011;3894;49.700;10.770;2023-11-21T07:43:08;5.70;;;1.80;;
7703;SDS011;3894;49.700;10.770;2023-11-21T07:45:35;6.20;;;2.15;;
7703;SDS011;3894;49.700;10.770;2023-11-21T07:48:01;5.60;;;2.05;;
7703;SDS011;3894;49.700;10.770;2023-11-21T07:50:28;6.15;;;1.85;;
7703;SDS011;3894;49.700;10.770;2023-11-21T07:52:54;7.03;;;1.90;;
7703;SDS011;3894;49.700;10.770;2023-11-21T07:55:20;7.00;;;2.58;;
7703;SDS011;3894;49.700;10.770;2023-11-21T07:57:46;6.13;;;1.80;;
7703;SDS011;3894;49.700;10.770;2023-11-21T08:00:12;6.10;;;1.67;;
7703;SDS011;3894;49.700;10.770;2023-11-21T08:02:38;6.95;;;1.83;;
7703;SDS011;3894;49.700;10.770;2023-11-21T08:05:08;7.75;;;2.00;;
7703;SDS011;3894;49.700;10.770;2023-11-21T08:07:34;6.40;;;1.90;;
7703;SDS011;3894;49.700;10.770;2023-11-21T08:10:00;6.88;;;2.17;;
7703;SDS011;3894;49.700;10.770;2023-11-21T08:12:29;7.90;;;2.20;;
7703;SDS011;3894;49.700;10.770;2023-11-21T08:14:57;7.75;;;2.47;;
7703;SDS011;3894;49.700;10.770;2023-11-21T08:17:22;7.70;;;2.95;;
7703;SDS011;3894;49.700;10.770;2023-11-21T08:19:48;6.13;;;2.25;;
7703;SDS011;3894;49.700;10.770;2023-11-21T08:22:16;8.95;;;2.78;;
7703;SDS011;3894;49.700;10.770;2023-11-21T08:24:43;10.65;;;3.15;;
7703;SDS011;3894;49.700;10.770;2023-11-21T08:27:09;7.55;;;2.67;;
7703;SDS011;3894;49.700;10.770;2023-11-21T08:29:34;7.43;;;2.58;;
7703;SDS011;3894;49.700;10.770;2023-11-21T08:32:01;6.50;;;2.25;;
7703;SDS011;3894;49.700;10.770;2023-11-21T08:34:27;7.22;;;2.75;;
7703;SDS011;3894;49.700;10.770;2023-11-21T08:36:53;7.93;;;2.75;;
7703;SDS011;3894;49.700;10.770;2023-11-21T08:39:23;7.55;;;2.30;;
7703;SDS011;3894;49.700;10.770;2023-11-21T08:41:49;8.23;;;2.58;;
7703;SDS011;3894;49.700;10.770;2023-11-21T08:44:16;7.55;;;2.67;;
7703;SDS011;3894;49.700;10.770;2023-11-21T08:46:43;7.68;;;2.65;;
7703;SDS011;3894;49.700;10.770;2023-11-21T08:49:11;8.77;;;2.80;;
7703;SDS011;3894;49.700;10.770;2023-11-21T08:51:40;8.82;;;3.47;;
7703;SDS011;3894;49.700;10.770;2023-11-21T08:54:06;7.85;;;2.90;;
7703;SDS011;3894;49.700;10.770;2023-11-21T08:56:33;8.63;;;2.40;;
7703;SDS011;3894;49.700;10.770;2023-11-21T08:59:00;10.43;;;3.03;;
7703;SDS011;3894;49.700;10.770;2023-11-21T09:01:27;8.57;;;3.33;;
7703;SDS011;3894;49.700;10.770;2023-11-21T09:03:53;7.82;;;2.53;;
7703;SDS011;3894;49.700;10.770;2023-11-21T09:06:19;7.93;;;2.30;;
7703;SDS011;3894;49.700;10.770;2023-11-21T09:08:44;8.80;;;2.67;;
7703;SDS011;3894;49.700;10.770;2023-11-21T09:11:10;6.80;;;2.75;;
7703;SDS011;3894;49.700;10.770;2023-11-21T09:13:36;6.82;;;2.40;;
7703;SDS011;3894;49.700;10.770;2023-11-21T09:16:02;8.48;;;2.47;;
7703;SDS011;3894;49.700;10.770;2023-11-21T09:18:27;6.68;;;2.30;;
7703;SDS011;3894;49.700;10.770;2023-11-21T09:20:55;6.60;;;2.45;;
7703;SDS011;3894;49.700;10.770;2023-11-21T09:23:21;8.25;;;1.92;;
7703;SDS011;3894;49.700;10.770;2023-11-21T09:25:47;6.78;;;2.25;;
7703;SDS011;3894;49.700;10.770;2023-11-21T09:28:15;7.50;;;2.22;;
7703;SDS011;3894;49.700;10.770;2023-11-21T09:33:08;9.73;;;2.53;;
7703;SDS011;3894;49.700;10.770;2023-11-21T09:35:36;10.55;;;3.97;;
7703;SDS011;3894;49.700;10.770;2023-11-21T09:38:03;17.13;;;6.60;;
7703;SDS011;3894;49.700;10.770;2023-11-21T09:40:35;19.05;;;6.07;;
7703;SDS011;3894;49.700;10.770;2023-11-21T09:43:02;11.93;;;4.93;;
7703;SDS011;3894;49.700;10.770;2023-11-21T09:45:40;29.65;;;9.70;;
7703;SDS011;3894;49.700;10.770;2023-11-21T09:48:18;15.32;;;4.47;;
7703;SDS011;3894;49.700;10.770;2023-11-21T09:50:45;14.15;;;3.78;;
7703;SDS011;3894;49.700;10.770;2023-11-21T09:55:43;10.55;;;3.95;;
7703;SDS011;3894;49.700;10.770;2023-11-21T09:58:10;15.10;;;4.55;;
7703;SDS011;3894;49.700;10.770;2023-11-21T10:00:42;11.88;;;4.90;;
7703;SDS011;3894;49.700;10.770;2023-11-21T10:03:12;7.97;;;2.83;;
7703;SDS011;3894;49.700;10.770;2023-11-21T10:05:39;8.63;;;3.15;;
7703;SDS011;3894;49.700;10.770;2023-11-21T10:08:11;8.65;;;2.85;;
7703;SDS011;3894;49.700;10.770;2023-11-21T10:10:38;9.00;;;2.58;;
7703;SDS011;3894;49.700;10.770;2023-11-21T10:13:09;7.60;;;2.15;;
7703;SDS011;3894;49.700;10.770;2023-11-21T10:15:37;7.82;;;2.53;;
7703;SDS011;3894;49.700;10.770;2023-11-21T10:18:09;7.07;;;2.47;;
7703;SDS011;3894;49.700;10.770;2023-11-21T10:20:35;8.00;;;2.70;;
7703;SDS011;3894;49.700;10.770;2023-11-21T10:23:03;6.93;;;2.22;;
7703;SDS011;3894;49.700;10.770;2023-11-21T10:25:32;8.10;;;2.92;;
7703;SDS011;3894;49.700;10.770;2023-11-21T10:27:59;8.52;;;3.10;;
7703;SDS011;3894;49.700;10.770;2023-11-21T10:30:32;8.15;;;2.80;;
7703;SDS011;3894;49.700;10.770;2023-11-21T10:33:02;7.57;;;2.72;;
7703;SDS011;3894;49.700;10.770;2023-11-21T10:38:06;8.35;;;3.10;;
7703;SDS011;3894;49.700;10.770;2023-11-21T10:40:37;7.90;;;3.00;;
7703;SDS011;3894;49.700;10.770;2023-11-21T10:43:10;7.65;;;2.65;;
7703;SDS011;3894;49.700;10.770;2023-11-21T10:45:40;15.25;;;6.90;;
7703;SDS011;3894;49.700;10.770;2023-11-21T10:48:07;13.27;;;5.05;;
7703;SDS011;3894;49.700;10.770;2023-11-21T10:50:35;8.15;;;3.45;;
7703;SDS011;3894;49.700;10.770;2023-11-21T10:53:02;7.55;;;2.50;;
7703;SDS011;3894;49.700;10.770;2023-11-21T10:55:29;10.48;;;2.72;;
7703;SDS011;3894;49.700;10.770;2023-11-21T10:57:58;14.82;;;5.90;;
7703;SDS011;3894;49.700;10.770;2023-11-21T11:00:27;10.10;;;3.97;;
7703;SDS011;3894;49.700;10.770;2023-11-21T11:02:54;8.27;;;2.70;;
7703;SDS011;3894;49.700;10.770;2023-11-21T11:05:21;9.35;;;2.67;;
7703;SDS011;3894;49.700;10.770;2023-11-21T11:07:50;7.63;;;2.45;;
7703;SDS011;3894;49.700;10.770;2023-11-21T11:10:22;6.43;;;2.33;;
7703;SDS011;3894;49.700;10.770;2023-11-21T11:12:51;8.15;;;2.50;;
7703;SDS011;3894;49.700;10.770;2023-11-21T11:15:19;6.60;;;2.70;;
7703;SDS011;3894;49.700;10.770;2023-11-21T11:17:45;7.10;;;2.47;;
7703;SDS011;3894;49.700;10.770;2023-11-21T11:20:12;7.25;;;2.53;;
7703;SDS011;3894;49.700;10.770;2023-11-21T11:22:50;9.30;;;3.83;;
7703;SDS011;3894;49.700;10.770;2023-11-21T11:28:47;10.73;;;3.63;;
7703;SDS011;3894;49.700;10.770;2023-11-21T11:31:40;11.77;;;3.95;;
7703;SDS011;3894;49.700;10.770;2023-11-21T11:34:32;11.57;;;3.83;;
7703;SDS011;3894;49.700;10.770;2023-11-21T11:37:02;7.40;;;2.75;;
7703;SDS011;3894;49.700;10.770;2023-11-21T11:39:31;9.50;;;3.38;;
7703;SDS011;3894;49.700;10.770;2023-11-21T11:42:05;7.70;;;3.05;;
7703;SDS011;3894;49.700;10.770;2023-11-21T11:44:46;6.80;;;2.55;;
7703;SDS011;3894;49.700;10.770;2023-11-21T11:52:48;5.82;;;2.42;;
7703;SDS011;3894;49.700;10.770;2023-11-21T11:55:20;6.18;;;2.05;;
7703;SDS011;3894;49.700;10.770;2023-11-21T11:57:51;12.30;;;3.00;;
7703;SDS011;3894;49.700;10.770;2023-11-21T12:00:21;8.27;;;2.75;;
7703;SDS011;3894;49.700;10.770;2023-11-21T12:02:59;6.63;;;2.03;;
7703;SDS011;3894;49.700;10.770;2023-11-21T12:05:30;8.18;;;2.70;;
7703;SDS011;3894;49.700;10.770;2023-11-21T12:08:10;6.05;;;1.85;;
7703;SDS011;3894;49.700;10.770;2023-11-21T12:10:37;6.50;;;1.77;;
7703;SDS011;3894;49.700;10.770;2023-11-21T12:15:39;6.93;;;1.60;;
7703;SDS011;3894;49.700;10.770;2023-11-21T12:18:06;6.05;;;1.65;;
7703;SDS011;3894;49.700;10.770;2023-11-21T12:20:32;5.78;;;1.73;;
7703;SDS011;3894;49.700;10.770;2023-11-21T12:23:03;9.82;;;2.03;;
7703;SDS011;3894;49.700;10.770;2023-11-21T12:25:30;6.00;;;1.48;;
7703;SDS011;3894;49.700;10.770;2023-11-21T12:28:02;4.88;;;1.00;;
7703;SDS011;3894;49.700;10.770;2023-11-21T12:30:28;5.95;;;1.55;;
7703;SDS011;3894;49.700;10.770;2023-11-21T12:32:58;4.50;;;2.03;;
7703;SDS011;3894;49.700;10.770;2023-11-21T12:35:25;4.63;;;1.35;;
7703;SDS011;3894;49.700;10.770;2023-11-21T12:37:52;4.95;;;1.10;;
7703;SDS011;3894;49.700;10.770;2023-11-21T12:40:20;4.50;;;1.15;;
7703;SDS011;3894;49.700;10.770;2023-11-21T12:42:48;4.05;;;1.00;;
7703;SDS011;3894;49.700;10.770;2023-11-21T12:47:51;4.18;;;0.80;;
7703;SDS011;3894;49.700;10.770;2023-11-21T12:50:23;3.70;;;0.63;;
7703;SDS011;3894;49.700;10.770;2023-11-21T12:52:53;7.03;;;1.05;;
7703;SDS011;3894;49.700;10.770;2023-11-21T12:55:22;4.25;;;1.13;;
7703;SDS011;3894;49.700;10.770;2023-11-21T12:57:50;4.80;;;1.05;;
7703;SDS011;3894;49.700;10.770;2023-11-21T13:00:17;3.70;;;0.95;;
7703;SDS011;3894;49.700;10.770;2023-11-21T13:02:54;3.85;;;0.88;;
7703;SDS011;3894;49.700;10.770;2023-11-21T13:07:52;4.60;;;0.63;;
7703;SDS011;3894;49.700;10.770;2023-11-21T13:10:19;3.90;;;0.80;;
7703;SDS011;3894;49.700;10.770;2023-11-21T13:12:52;3.55;;;0.70;;
7703;SDS011;3894;49.700;10.770;2023-11-21T13:15:18;3.75;;;0.57;;
7703;SDS011;3894;49.700;10.770;2023-11-21T13:17:44;5.38;;;0.77;;
7703;SDS011;3894;49.700;10.770;2023-11-21T13:20:10;3.03;;;0.50;;
7703;SDS011;3894;49.700;10.770;2023-11-21T13:22:54;2.75;;;0.55;;
7703;SDS011;3894;49.700;10.770;2023-11-21T13:25:27;4.45;;;0.63;;
7703;SDS011;3894;49.700;10.770;2023-11-21T13:27:57;3.30;;;0.57;;
7703;SDS011;3894;49.700;10.770;2023-11-21T13:30:24;4.55;;;0.40;;
7703;SDS011;3894;49.700;10.770;2023-11-21T13:32:58;2.95;;;0.40;;
7703;SDS011;3894;49.700;10.770;2023-11-21T13:35:36;4.10;;;0.70;;
7703;SDS011;3894;49.700;10.770;2023-11-21T13:38:05;3.35;;;0.45;;
7703;SDS011;3894;49.700;10.770;2023-11-21T13:40:35;4.35;;;0.50;;
7703;SDS011;3894;49.700;10.770;2023-11-21T13:43:09;4.32;;;0.52;;
7703;SDS011;3894;49.700;10.770;2023-11-21T13:45:36;3.53;;;0.50;;
7703;SDS011;3894;49.700;10.770;2023-11-21T13:48:04;3.42;;;0.60;;
7703;SDS011;3894;49.700;10.770;2023-11-21T13:50:33;4.97;;;0.68;;
7703;SDS011;3894;49.700;10.770;2023-11-21T13:53:00;3.70;;;0.90;;
7703;SDS011;3894;49.700;10.770;2023-11-21T13:55:41;4.72;;;0.40;;
7703;SDS011;3894;49.700;10.770;2023-11-21T13:58:07;4.07;;;0.70;;
7703;SDS011;3894;49.700;10.770;2023-11-21T14:00:37;4.78;;;0.52;;
7703;SDS011;3894;49.700;10.770;2023-11-21T14:03:17;4.07;;;0.45;;
7703;SDS011;3894;49.700;10.770;2023-11-21T14:05:46;2.42;;;0.40;;
7703;SDS011;3894;49.700;10.770;2023-11-21T14:08:15;3.42;;;0.57;;
7703;SDS011;3894;49.700;10.770;2023-11-21T14:10:45;5.10;;;0.40;;
7703;SDS011;3894;49.700;10.770;2023-11-21T14:13:16;3.70;;;0.60;;
7703;SDS011;3894;49.700;10.770;2023-11-21T14:15:42;3.20;;;0.75;;
7703;SDS011;3894;49.700;10.770;2023-11-21T14:18:11;2.85;;;0.32;;
7703;SDS011;3894;49.700;10.770;2023-11-21T14:20:39;2.78;;;0.38;;
7703;SDS011;3894;49.700;10.770;2023-11-21T14:23:06;3.35;;;0.90;;
7703;SDS011;3894;49.700;10.770;2023-11-21T14:25:36;3.45;;;0.40;;
7703;SDS011;3894;49.700;10.770;2023-11-21T14:28:02;2.70;;;0.43;;
7703;SDS011;3894;49.700;10.770;2023-11-21T14:30:29;5.57;;;0.32;;
7703;SDS011;3894;49.700;10.770;2023-11-21T14:32:57;3.90;;;0.40;;
7703;SDS011;3894;49.700;10.770;2023-11-21T14:35:23;3.53;;;0.55;;
7703;SDS011;3894;49.700;10.770;2023-11-21T14:37:49;5.05;;;0.57;;
7703;SDS011;3894;49.700;10.770;2023-11-21T14:40:14;4.47;;;0.60;;
7703;SDS011;3894;49.700;10.770;2023-11-21T14:42:41;3.58;;;0.50;;
7703;SDS011;3894;49.700;10.770;2023-11-21T14:45:08;3.15;;;0.63;;
7703;SDS011;3894;49.700;10.770;2023-11-21T14:47:37;5.40;;;0.73;;
7703;SDS011;3894;49.700;10.770;2023-11-21T14:50:07;4.30;;;0.40;;
7703;SDS011;3894;49.700;10.770;2023-11-21T14:52:52;4.65;;;0.75;;
7703;SDS011;3894;49.700;10.770;2023-11-21T14:55:24;5.32;;;0.73;;
7703;SDS011;3894;49.700;10.770;2023-11-21T14:57:57;3.17;;;0.40;;
7703;SDS011;3894;49.700;10.770;2023-11-21T15:00:27;5.15;;;0.68;;
7703;SDS011;3894;49.700;10.770;2023-11-21T15:02:58;4.13;;;0.93;;
7703;SDS011;3894;49.700;10.770;2023-11-21T15:05:25;3.50;;;0.47;;
7703;SDS011;3894;49.700;10.770;2023-11-21T15:07:52;5.70;;;0.68;;
7703;SDS011;3894;49.700;10.770;2023-11-21T15:10:23;4.00;;;0.73;;
7703;SDS011;3894;49.700;10.770;2023-11-21T15:13:03;6.47;;;0.90;;
7703;SDS011;3894;49.700;10.770;2023-11-21T15:15:29;10.88;;;1.90;;
7703;SDS011;3894;49.700;10.770;2023-11-21T15:17:57;8.63;;;2.83;;
7703;SDS011;3894;49.700;10.770;2023-11-21T15:20:23;7.22;;;2.28;;
7703;SDS011;3894;49.700;10.770;2023-11-21T15:22:51;11.38;;;4.65;;
7703;SDS011;3894;49.700;10.770;2023-11-21T15:25:16;7.25;;;3.00;;
7703;SDS011;3894;49.700;10.770;2023-11-21T15:27:42;4.25;;;1.35;;
7703;SDS011;3894;49.700;10.770;2023-11-21T15:30:08;6.05;;;2.47;;
7703;SDS011;3894;49.700;10.770;2023-11-21T15:32:34;5.05;;;1.00;;